Latest Weather Observations for Giles*

IDW60801

Issued at 10:02 am WST Monday 8 February 2016 (issued every 30 minutes, with the page automatically refreshed every 10 minutes)

About weather observations | Map of weather stations | Latest weather observations for WA | Other Formats
Station Details ID: 013017 Name: GILES METEOROLOGICAL OFFICE Lat: -25.03 Lon: 128.30 Height: 598.0 m
Data from the previous 72 hours. | See also: Recent months at Giles*

* Giles observations are collected in the South Australia time zone, which includes daylight saving in the summer period. Therefore, Rain since 9am value is with respect to South Australia local time.

Date/Time
WST
Temp
°C
App
Temp
°C
Dew
Point
Rel
Hum
%
Delta-T
°C
Wind Press
QNH
hPa
Press
MSL
hPa
Rain
since 9 am
mm
Dir
 
Spd
km/h
Gust
km/h
Spd
kts
Gust
kts
08/10:00am 34.1 28.1 3.5 14 16.3 ENE 24 33 13 18 1018.5 1013.8 0.0
08/09:30am 33.7 28.3 6.4 18 15.2 ENE 24 35 13 19 1018.9 1014.3 0.0
08/09:00am 32.4 26.1 5.7 19 14.6 E 28 39 15 21 1019.1 1014.4 0.0
08/08:30am 31.8 26.7 6.1 20 14.1 ENE 22 33 12 18 1019.3 1014.6 0.0
08/08:00am 30.4 24.0 5.0 20 13.6 E 28 37 15 20 1019.2 1014.5 0.0
08/07:30am 29.0 22.5 4.5 21 12.9 E 28 39 15 21 1019.3 1014.6 0.0
08/07:00am 27.8 22.0 4.4 22 12.2 E 24 35 13 19 1019.4 1014.7 0.0
08/06:30am 25.5 19.9 3.6 24 11.1 E 22 33 12 18 1019.4 1014.7 0.0
08/06:00am 23.8 18.4 2.7 25 10.4 E 20 28 11 15 1019.4 1014.7 0.0
08/05:30am 22.4 18.0 2.8 27 9.6 E 15 20 8 11 1019.1 1014.4 0.0
08/05:00am 22.3 17.9 2.6 27 9.6 E 15 19 8 10 1018.5 1013.8 0.0
08/04:30am 22.1 17.7 2.6 27 9.5 ESE 15 19 8 10 1018.3 1013.6 0.0
08/04:00am 22.9 18.7 1.7 24 10.2 E 13 20 7 11 1018.3 1013.6 0.0
08/03:30am 21.9 17.7 1.9 26 9.6 E 13 17 7 9 1017.9 1013.2 0.0
08/03:00am 22.4 18.2 1.5 25 10.0 ESE 13 17 7 9 1017.8 1013.1 0.0
08/02:30am 22.4 18.2 1.5 25 10.0 ESE 13 17 7 9 1017.6 1012.9 0.0
08/02:00am 22.0 17.9 2.1 27 9.6 ESE 13 15 7 8 1017.4 1012.7 0.0
08/01:30am 22.7 18.5 1.7 25 10.1 ESE 13 13 7 7 1017.4 1012.7 0.0
08/01:00am 24.9 20.6 0.7 20 11.6 E 13 17 7 9 1017.3 1012.6 0.0
08/12:30am 25.4 20.7 0.7 20 11.9 E 15 17 8 9 1017.4 1012.7 0.0
08/12:00am 25.1 20.8 1.2 21 11.6 E 13 15 7 8 1017.5 1012.8 0.0
 
Date/Time
WST
Temp
°C
App
Temp
°C
Dew
Point
Rel
Hum
%
Delta-T
°C
Wind Press
QNH
hPa
Press
MSL
hPa
Rain
since 9 am
mm
Dir
 
Spd
km/h
Gust
km/h
Spd
kts
Gust
kts
07/11:30pm 26.0 21.7 0.8 19 12.2 E 13 17 7 9 1017.5 1012.8 0.0
07/11:00pm 25.9 21.6 1.0 19 12.1 E 13 15 7 8 1017.5 1012.8 0.0
07/10:30pm 26.3 22.5 1.5 20 12.2 E 11 13 6 7 1017.6 1012.9 0.0
07/10:00pm 27.1 22.8 0.9 18 12.8 E 13 15 7 8 1017.6 1012.9 0.0
07/09:30pm 27.3 22.8 -0.2 16 13.2 ESE 13 15 7 8 1017.5 1012.8 0.0
07/09:00pm 28.2 23.6 -0.9 15 13.9 ESE 13 17 7 9 1017.3 1012.6 0.0
07/08:30pm 29.0 24.3 -1.5 13 14.5 ESE 13 17 7 9 1016.8 1012.1 0.0
07/08:00pm 30.5 24.9 -3.1 11 15.7 SE 17 20 9 11 1016.4 1011.7 0.0
07/07:30pm 30.8 25.2 -3.2 11 15.9 SE 17 20 9 11 1016.0 1011.3 0.0
07/07:00pm 31.8 26.2 -3.3 10 16.5 SE 17 22 9 12 1015.7 1011.0 0.0
07/06:30pm 33.1 27.0 -3.9 9 17.4 SE 19 28 10 15 1015.2 1010.5 0.0
07/06:00pm 34.2 27.8 -4.7 8 18.2 SE 20 28 11 15 1014.7 1010.0 0.0
07/05:30pm 35.1 29.8 -3.9 8 18.6 ESE 15 22 8 12 1014.2 1009.5 0.0
07/05:00pm 35.8 29.1 -4.3 7 19.1 E 22 32 12 17 1013.9 1009.1 0.0
07/04:30pm 36.0 29.1 -6.0 6 19.5 E 22 37 12 20 1013.5 1008.8 0.0
07/04:13pm 36.3 28.3 -5.5 7 19.6 ESE 28 43 15 23 1013.6 1008.9 0.0
07/04:00pm 36.0 30.2 -1.5 9 18.7 ESE 19 35 10 19 1013.5 1008.8 0.0
07/03:30pm 36.6 29.8 -4.9 7 19.7 SE 22 39 12 21 1013.3 1008.6 0.0
07/03:00pm 36.5 29.4 -4.7 7 19.6 ESE 24 37 13 20 1013.6 1008.9 0.0
07/02:30pm 35.7 29.1 -3.5 8 18.9 ESE 22 35 12 19 1013.9 1009.1 0.0
07/02:00pm 36.6 29.5 -4.4 7 19.6 ESE 24 35 13 19 1014.2 1009.5 0.0
07/01:30pm 35.6 30.4 -2.8 8 18.7 SE 15 32 8 17 1014.6 1009.9 0.0
07/01:00pm 35.0 28.9 -2.1 9 18.2 ESE 20 37 11 20 1014.8 1010.1 0.0
07/12:30pm 35.6 29.2 -4.5 7 19.0 SE 20 41 11 22 1015.3 1010.6 0.0
07/12:00pm 34.8 28.6 -3.3 8 18.3 E 20 35 11 19 1015.7 1011.0 0.0
07/11:30am 35.0 29.5 -2.2 9 18.2 SSE 17 41 9 22 1016.2 1011.5 0.0
07/11:00am 33.8 28.2 0.0 11 17.0 ESE 19 30 10 16 1016.6 1011.9 0.0
07/10:30am 32.9 27.4 0.3 12 16.4 E 19 32 10 17 1017.0 1012.4 0.0
07/10:00am 33.2 28.2 1.4 13 16.3 E 17 26 9 14 1017.4 1012.7 0.0
07/09:30am 32.6 27.3 2.0 14 15.8 ENE 19 30 10 16 1017.6 1012.9 0.0
07/09:00am 32.5 27.0 1.7 14 15.8 ESE 20 32 11 17 1017.7 1013.0 0.0
07/08:30am 31.3 24.5 0.8 14 15.3 ESE 26 35 14 19 1017.8 1013.1 0.0
07/08:00am 30.1 24.1 0.8 15 14.6 E 22 35 12 19 1017.7 1013.0 0.0
07/07:30am 28.2 22.8 2.2 18 13.1 E 20 28 11 15 1017.9 1013.2 0.0
07/07:00am 25.9 20.6 2.8 22 11.6 ESE 20 32 11 17 1017.8 1013.1 0.0
07/06:30am 24.3 19.7 3.7 26 10.4 E 17 24 9 13 1017.7 1013.0 0.0
07/06:00am 22.9 18.4 4.0 29 9.5 E 17 20 9 11 1017.6 1012.9 0.0
07/05:30am 21.3 16.8 4.0 32 8.6 SE 17 20 9 11 1017.1 1012.5 0.0
07/05:00am 21.0 16.9 4.1 33 8.4 ESE 15 19 8 10 1016.3 1011.6 0.0
07/04:30am 21.8 18.0 4.0 31 8.9 ESE 13 17 7 9 1015.8 1011.1 0.0
07/04:00am 22.8 18.6 3.6 28 9.6 E 15 20 8 11 1015.3 1010.6 0.0
07/03:30am 21.1 17.4 4.3 33 8.4 E 13 15 7 8 1015.1 1010.4 0.0
07/03:00am 22.2 18.4 3.8 30 9.2 ESE 13 17 7 9 1014.9 1010.2 0.0
07/02:30am 22.7 18.8 3.4 28 9.6 E 13 17 7 9 1014.9 1010.2 0.0
07/02:00am 23.2 19.3 3.3 27 9.9 E 13 19 7 10 1014.7 1010.0 0.0
07/01:30am 23.9 19.9 3.0 25 10.4 E 13 19 7 10 1014.6 1009.9 0.0
07/01:00am 24.1 19.8 3.0 25 10.5 E 15 19 8 10 1014.3 1009.6 0.0
07/12:30am 23.7 19.8 3.6 27 10.1 ENE 13 15 7 8 1014.4 1009.7 0.0
07/12:00am 23.9 20.0 3.3 26 10.3 SE 13 15 7 8 1014.7 1010.0 0.0
 
Date/Time
WST
Temp
°C
App
Temp
°C
Dew
Point
Rel
Hum
%
Delta-T
°C
Wind Press
QNH
hPa
Press
MSL
hPa
Rain
since 9 am
mm
Dir
 
Spd
km/h
Gust
km/h
Spd
kts
Gust
kts
06/11:30pm 24.5 20.5 3.1 25 10.7 E 13 17 7 9 1014.9 1010.2 0.0
06/11:00pm 24.5 21.0 3.5 25 10.6 E 11 13 6 7 1015.0 1010.3 0.0
06/10:30pm 25.1 21.6 3.6 25 10.9 E 11 15 6 8 1014.9 1010.2 0.0
06/10:00pm 26.0 22.0 2.7 22 11.7 ESE 13 17 7 9 1014.9 1010.2 0.0
06/09:30pm 26.3 22.1 1.9 20 12.1 ESE 13 17 7 9 1014.9 1010.2 0.0
06/09:00pm 26.8 22.6 1.5 19 12.5 ESE 13 17 7 9 1014.7 1010.0 0.0
06/08:30pm 28.2 23.4 0.0 16 13.7 SE 15 19 8 10 1014.3 1009.6 0.0
06/08:00pm 28.7 23.4 -0.5 15 14.1 SE 17 20 9 11 1013.8 1009.0 0.0
06/07:30pm 29.9 24.5 -1.3 13 15.0 SE 17 22 9 12 1013.5 1008.8 0.0
06/07:00pm 30.8 24.7 -2.1 12 15.7 SE 20 26 11 14 1013.1 1008.4 0.0
06/06:30pm 31.7 25.2 -2.4 11 16.3 SE 22 32 12 17 1012.6 1007.9 0.0
06/06:00pm 32.4 27.3 -2.3 10 16.7 ESE 15 20 8 11 1012.3 1007.5 0.0
06/05:30pm 33.4 27.2 -3.4 9 17.5 SE 20 30 11 16 1012.0 1007.2 0.0
06/05:00pm 33.6 26.9 -4.4 8 17.8 ESE 22 32 12 17 1011.7 1007.0 0.0
06/04:30pm 34.2 27.1 -4.6 8 18.2 SE 24 33 13 18 1011.5 1006.8 0.0
06/04:00pm 34.2 27.9 -4.0 8 18.1 E 20 32 11 17 1011.4 1006.7 0.0
06/03:30pm 34.4 27.6 -5.0 8 18.4 SE 22 35 12 19 1011.3 1006.6 0.0
06/03:00pm 34.5 28.7 -4.7 8 18.4 ESE 17 33 9 18 1011.5 1006.8 0.0
06/02:30pm 34.6 28.1 -5.6 7 18.6 SE 20 33 11 18 1012.0 1007.2 0.0
06/02:00pm 34.2 28.9 -4.0 8 18.1 E 15 26 8 14 1012.1 1007.3 0.0
06/01:30pm 34.2 28.0 -4.6 8 18.2 ESE 19 28 10 15 1012.5 1007.8 0.0
06/01:00pm 34.0 27.7 -3.6 9 17.9 ESE 20 28 11 15 1013.0 1008.3 0.0
06/12:30pm 33.0 27.7 -3.6 9 17.3 SE 15 28 8 15 1013.3 1008.6 0.0
06/12:00pm 32.7 28.1 -4.1 9 17.2 E 11 28 6 15 1013.8 1009.0 0.0
06/11:30am 31.9 27.9 -1.9 11 16.3 SSW 9 17 5 9 1014.2 1009.5 0.0
06/11:00am 31.3 27.4 -1.7 12 15.9 SSE 9 20 5 11 1014.6 1009.9 0.0
06/10:30am 31.0 25.8 -2.6 11 15.9 SE 15 24 8 13 1014.9 1010.2 0.0
06/10:00am 30.8 26.1 -1.7 12 15.6 SE 13 22 7 12 1015.2 1010.5 0.0
06/09:30am 30.2 25.7 -0.2 14 14.9 E 13 24 7 13 1015.4 1010.7 0.0
06/09:00am 29.1 23.8 -0.8 14 14.4 E 17 22 9 12 1015.7 1011.0 0.0
06/08:30am 28.5 23.0 0.6 16 13.7 E 19 26 10 14 1015.8 1011.1 0.0
06/08:00am 27.1 22.5 1.4 19 12.7 ESE 15 22 8 12 1015.8 1011.1 0.0
06/07:30am 26.1 21.2 1.8 20 12.0 ESE 17 22 9 12 1015.6 1010.9 0.0
06/07:00am 25.1 21.1 2.9 23 11.1 ESE 13 19 7 10 1015.3 1010.6 0.0
06/06:30am 22.8 18.8 2.9 27 9.8 ESE 13 17 7 9 1015.2 1010.5 0.0
06/06:00am 20.1 16.1 2.6 31 8.4 ESE 13 17 7 9 1014.9 1010.2 -
06/05:30am 18.1 13.6 2.4 35 7.4 ESE 15 17 8 9 1014.6 1009.9 -
06/05:00am 18.4 13.4 1.3 31 7.9 ESE 17 19 9 10 1014.2 1009.5 -
06/04:30am 18.7 14.0 1.2 31 8.1 ESE 15 17 8 9 1013.9 1009.1 -
06/04:00am 19.2 14.5 1.1 29 8.4 ESE 15 19 8 10 1013.5 1008.8 -
06/03:30am 20.2 15.0 0.2 26 9.2 E 17 22 9 12 1013.3 1008.6 -
06/03:00am 20.2 15.0 0.2 26 9.2 E 17 20 9 11 1013.1 1008.4 -
06/02:30am 19.5 14.8 1.0 29 8.6 E 15 19 8 10 1013.0 1008.3 -
06/02:00am 19.5 14.9 1.3 29 8.5 E 15 19 8 10 1013.0 1008.3 -
06/01:30am 19.3 15.1 1.6 30 8.3 ESE 13 17 7 9 1013.0 1008.3 -
06/01:00am 19.1 15.0 2.2 32 8.0 ESE 13 15 7 8 1013.2 1008.5 -
06/12:30am 20.3 15.7 1.4 28 8.9 SE 15 17 8 9 1013.3 1008.6 0.0
06/12:00am 20.2 15.7 1.9 29 8.7 SE 15 17 8 9 1013.6 1008.9 -
 
Date/Time
WST
Temp
°C
App
Temp
°C
Dew
Point
Rel
Hum
%
Delta-T
°C
Wind Press
QNH
hPa
Press
MSL
hPa
Rain
since 9 am
mm
Dir
 
Spd
km/h
Gust
km/h
Spd
kts
Gust
kts
05/11:30pm 20.6 16.1 1.9 29 8.9 SE 15 17 8 9 1013.9 1009.1 -
05/11:00pm 21.7 17.1 1.6 26 9.6 SE 15 17 8 9 1014.0 1009.3 -
05/10:30pm 21.8 17.7 2.1 27 9.5 ESE 13 13 7 7 1014.1 1009.4 -
05/10:00pm 22.5 18.6 1.4 25 10.1 ESE 11 13 6 7 1014.3 1009.6 -
05/09:30pm 23.3 19.1 1.9 24 10.4 SSE 13 15 7 8 1014.3 1009.6 -
05/09:00pm 24.0 20.2 1.8 23 10.8 SSE 11 15 6 8 1014.1 1009.4 -
05/08:30pm 25.4 20.9 0.0 19 12.1 SSE 13 19 7 10 1013.9 1009.1 -
05/08:00pm 25.8 20.8 -1.1 17 12.6 SSE 15 19 8 10 1013.4 1008.7 -
05/07:30pm 26.3 21.5 -2.5 15 13.2 SSE 13 19 7 10 1013.2 1008.5 -
05/07:00pm 27.6 22.4 -2.8 13 14.0 S 15 19 8 10 1013.0 1008.3 -
05/06:30pm 29.4 23.0 -5.3 10 15.5 S 20 28 11 15 1012.6 1007.9 0.0
05/06:00pm 30.4 23.6 -4.8 10 16.0 S 22 32 12 17 1012.3 1007.5 -
05/05:30pm 31.5 25.6 -5.8 8 16.8 S 17 24 9 13 1012.0 1007.2 -
05/05:00pm 32.3 25.9 -5.3 8 17.2 SSE 20 32 11 17 1011.6 1006.9 -
05/04:30pm 32.5 25.8 -8.5 6 17.8 S 20 28 11 15 1011.5 1006.8 -
05/04:00pm 32.6 26.5 -4.3 9 17.2 SSE 19 33 10 18 1011.3 1006.6 -
05/03:30pm 33.1 26.3 -5.5 8 17.7 SSW 22 35 12 19 1011.4 1006.7 -
05/03:00pm 33.4 26.3 -8.3 6 18.3 S 22 33 12 18 1011.5 1006.8 -
05/02:30pm 32.6 27.3 -3.8 9 17.1 SSE 15 24 8 13 1011.8 1007.1 -
05/02:00pm 32.3 27.4 -3.7 9 16.9 SE 13 20 7 11 1012.3 1007.5 -
05/01:30pm 32.6 26.8 -1.8 11 16.7 WSW 19 28 10 15 1012.7 1008.0 -
05/01:00pm 31.7 27.8 1.1 14 15.5 SE 11 19 6 10 1013.1 1008.4 -
05/12:30pm 31.6 27.6 0.4 13 15.6 SW 11 17 6 9 1013.6 1008.9 0.0
05/12:00pm 31.5 28.5 1.8 15 15.2 E 7 15 4 8 1014.2 1009.5 -
05/11:30am 30.5 26.4 2.5 16 14.4 ESE 13 26 7 14 1014.6 1009.9 -
05/11:00am 29.4 26.1 2.6 18 13.7 SE 9 19 5 10 1015.2 1010.5 -
05/10:30am 29.8 26.0 3.8 19 13.6 E 13 20 7 11 1015.7 1011.0 -
05/10:00am 28.1 24.2 3.4 20 12.7 ESE 13 28 7 15 1016.0 1011.3 -
05/09:30am 28.8 23.9 4.1 20 12.9 SE 19 28 10 15 1016.1 1011.4 -

Other Formats:

Comma delimited format used in spreadsheet applications
http://www.bom.gov.au/fwo/IDW60801/IDW60801.94461.axf

JavaScript Object Notation format (JSON) in row-major order
http://www.bom.gov.au/fwo/IDW60801/IDW60801.94461.json